Kemerovo, Russia
Current Conditions -  °F | °C
As of 10:00 PM on Wednesday 22 Oct 2014 (Local Time) from UNEE Reporting Station
Snow Showers Snow Showers  
Wind Chill: 21°   Ceiling: 2700
Heat Index: 30°   Visibility: 4mi
Dew Point: 30°   Wind: 11mph
Humidity: 100%   Direction: 200°SSW
Pressure: 30.03"   Gusts: NA
Location:  55.33°N, 86.08°E
Report Text: UNEE 221500Z 20005MPS 6000 -SHSN OVC027CB M01/M01 Q1017 NOSIGRMK QFE740 23491040
Loading
Personal Weather Stations






























Interactive Weather Map
Tropical Storm Tracking
New forecast layout! Learn more

10-Day Weather Forecast

Advertisements
Track Severe Weather on mobile